Aviation Digital Data Service (ADDS)

Output produced by METARs form (0240 UTC 22 July 2017)
found at http://www.aviationweather.gov/adds/metars/
 
GQPP 220200Z 35010KT 7000 NSC 20/18 Q1013 NOSIG
TAF GQPP 212300Z 2200/2224 35015KT 8000 NSC 
     TEMPO 2202/2210 BKN006